Time;durP1;ratioP1;P1;durP2;ratioP2;P2;SDS_P1;SDS_P2;PMS_P1;PMS_P2;Temp;Humidity;BMP_temperature;BMP_pressure;BME280_temperature;BME280_humidity;BME280_pressure;Samples;Min_cycle;Max_cycle;Signal;HPM_P1;HPM_P2
2022/08/23 07:15:06;;;;;;;9.00;2.28;;;;;;;22.08;49.23;99007.34;5089756;27;20193;-80
2022/08/23 07:17:33;;;;;;;18.58;2.47;;;;;;;22.19;49.58;98999.09;5069946;28;20048;-80
2022/08/23 07:19:59;;;;;;;7.82;2.17;;;;;;;22.44;48.85;99004.84;5069233;28;20057;-80
2022/08/23 07:22:26;;;;;;;8.32;2.00;;;;;;;22.50;48.21;99004.91;5068541;28;20040;-80
2022/08/23 07:24:52;;;;;;;8.45;1.73;;;;;;;22.83;48.56;99012.03;5067204;28;20053;-79
2022/08/23 07:27:19;;;;;;;3.88;1.55;;;;;;;22.93;47.54;99002.94;5068352;28;20106;-79
2022/08/23 07:29:45;;;;;;;11.93;1.92;;;;;;;23.24;47.55;99005.84;5069245;28;20527;-79
2022/08/23 07:32:13;;;;;;;7.80;1.55;;;;;;;23.13;46.96;99008.56;5068071;28;20106;-79
2022/08/23 07:34:40;;;;;;;4.22;1.67;;;;;;;23.02;47.07;99004.06;5066477;28;20049;-79
2022/08/23 07:37:06;;;;;;;3.75;1.73;;;;;;;22.80;46.50;99015.31;5066781;28;20486;-79
2022/08/23 07:39:33;;;;;;;11.75;2.00;;;;;;;22.94;46.75;99019.28;5065231;28;20459;-78
2022/08/23 07:42:00;;;;;;;3.38;1.70;;;;;;;22.89;46.67;99012.88;5066618;28;20052;-79
2022/08/23 07:44:26;;;;;;;5.85;1.88;;;;;;;23.05;45.53;99009.09;5066736;28;20052;-79
2022/08/23 07:46:53;;;;;;;11.23;1.80;;;;;;;23.08;44.94;99016.00;5067726;28;20136;-79
2022/08/23 07:49:21;;;;;;;9.15;1.77;;;;;;;23.20;45.55;99024.97;5067272;28;20055;-79
2022/08/23 07:51:51;;;;;;;5.40;1.67;;;;;;;23.29;45.59;99031.66;5067332;28;20056;-79
2022/08/23 07:54:20;;;;;;;;;;;;;;;23.31;45.81;99025.84;5067189;28;20131;-79
2022/08/23 07:56:46;;;;;;;8.07;1.85;;;;;;;23.33;44.69;99027.25;5066281;28;19925;-79
2022/08/23 07:59:13;;;;;;;5.97;1.85;;;;;;;23.26;45.10;99023.88;5066751;28;20099;-79
2022/08/23 08:01:43;;;;;;;6.53;1.48;;;;;;;23.28;43.53;99029.97;5066825;28;20049;-79
2022/08/23 08:04:11;;;;;;;4.50;1.60;;;;;;;23.57;43.63;99032.28;5066400;28;20431;-79
2022/08/23 08:06:42;;;;;;;7.03;1.38;;;;;;;23.69;43.96;99024.53;5067229;28;20052;-79
2022/08/23 08:09:11;;;;;;;4.57;1.50;;;;;;;23.76;43.19;99029.84;5066620;28;20052;-79
2022/08/23 08:11:42;;;;;;;9.35;1.75;;;;;;;23.32;44.86;99022.78;5066838;28;20051;-79
2022/08/23 08:14:09;;;;;;;10.57;1.90;;;;;;;23.25;45.35;99038.84;5077930;28;20060;-80
2022/08/23 08:16:38;;;;;;;10.27;1.58;;;;;;;23.45;45.62;99028.94;5086752;28;20139;-79
2022/08/23 08:19:07;;;;;;;7.88;2.03;;;;;;;23.47;44.52;99035.03;5086790;28;20067;-80
2022/08/23 08:21:34;;;;;;;2.77;1.30;;;;;;;23.39;44.51;99028.06;5086858;28;20213;-80
2022/08/23 08:24:04;;;;;;;7.97;1.60;;;;;;;23.65;44.66;99040.09;5084946;28;20044;-80
2022/08/23 08:26:30;;;;;;;10.23;1.75;;;;;;;23.63;43.95;99030.34;5072350;28;20059;-80
2022/08/23 08:28:57;;;;;;;6.03;1.60;;;;;;;23.74;43.49;99043.16;5073653;28;20052;-80
2022/08/23 08:31:25;;;;;;;1.75;1.30;;;;;;;23.97;43.57;99038.22;5072158;28;20053;-80
2022/08/23 08:33:52;;;;;;;5.53;2.00;;;;;;;24.00;44.43;99044.03;5072502;28;20052;-80
2022/08/23 08:36:31;;;;;;;2.92;1.50;;;;;;;23.63;43.22;99041.47;5072815;28;20057;-80
2022/08/23 08:38:58;;;;;;;4.20;1.40;;;;;;;23.75;43.18;99043.97;5073605;28;20052;-80
2022/08/23 08:41:36;;;;;;;11.13;2.17;;;;;;;23.82;42.53;99037.06;5073153;28;20049;-80
2022/08/23 08:44:10;;;;;;;3.47;1.65;;;;;;;24.04;42.58;99033.22;5072625;28;20052;-80
2022/08/23 08:46:43;;;;;;;2.75;1.52;;;;;;;23.93;41.91;99043.47;5071702;28;20143;-80
2022/08/23 08:49:13;;;;;;;3.30;1.50;;;;;;;23.88;41.29;99046.25;5072857;28;20051;-80
2022/08/23 08:51:47;;;;;;;4.15;1.27;;;;;;;24.13;42.87;99037.13;5072978;28;20049;-80
2022/08/23 08:54:18;;;;;;;5.32;1.52;;;;;;;24.46;40.88;99043.19;5072376;28;20048;-80
2022/08/23 08:56:51;;;;;;;4.30;1.30;;;;;;;24.50;40.80;99037.94;5072722;28;20114;-81
2022/08/23 08:59:21;;;;;;;4.45;1.27;;;;;;;24.71;40.92;99047.09;5072747;28;20044;-80
2022/08/23 09:01:48;;;;;;;5.75;1.45;;;;;;;24.64;40.25;99050.16;5072185;28;20048;-80
2022/08/23 09:04:15;;;;;;;3.83;1.52;;;;;;;24.84;40.48;99045.66;5071349;28;20052;-80
2022/08/23 09:06:51;;;;;;;7.63;1.58;;;;;;;24.89;39.18;99049.25;5072415;28;20048;-80
2022/08/23 09:09:34;;;;;;;5.47;1.30;;;;;;;24.82;39.10;99056.22;5072485;28;20050;-80
2022/08/23 09:12:12;;;;;;;2.72;1.40;;;;;;;24.77;39.40;99054.31;5072408;28;20052;-80
2022/08/23 09:15:09;;;;;;;4.47;1.58;;;;;;;24.64;38.62;99047.38;5072374;28;20045;-80
2022/08/23 09:17:42;;;;;;;8.57;1.40;;;;;;;24.85;38.53;99037.03;5071294;28;20407;-80
2022/08/23 09:20:12;;;;;;;6.45;1.30;;;;;;;25.07;38.89;99038.66;5071542;28;20056;-81
2022/08/23 09:22:40;;;;;;;;;;;;;;;25.10;38.74;99040.84;5070463;28;20110;-80
2022/08/23 09:25:09;;;;;;;3.55;1.35;;;;;;;25.02;38.82;99038.66;5071416;28;19921;-80
2022/08/23 09:27:37;;;;;;;6.00;1.52;;;;;;;25.02;38.76;99042.28;5072060;28;20495;-80
2022/08/23 09:30:05;;;;;;;4.47;1.40;;;;;;;25.21;38.98;99042.47;5072223;28;20063;-80
2022/08/23 09:32:34;;;;;;;8.82;1.48;;;;;;;25.37;38.56;99043.28;5071222;28;20545;-80
2022/08/23 09:35:11;;;;;;;1.90;1.13;;;;;;;25.38;37.66;99041.31;5072221;28;20047;-81
2022/08/23 09:37:52;;;;;;;5.60;1.60;;;;;;;25.49;37.95;99037.38;5071325;28;20181;-81
2022/08/23 09:40:25;;;;;;;5.30;1.48;;;;;;;25.35;37.85;99039.09;5071590;28;20044;-80
2022/08/23 09:43:04;;;;;;;4.07;1.40;;;;;;;25.46;37.68;99035.16;5051331;28;20049;-80
2022/08/23 09:45:33;;;;;;;4.30;1.57;;;;;;;25.46;37.25;99028.75;5052116;28;20589;-81
2022/08/23 09:48:00;;;;;;;2.30;1.35;;;;;;;25.55;36.84;99035.41;5052365;28;20396;-81
2022/08/23 09:50:29;;;;;;;3.00;1.10;;;;;;;25.71;36.78;99031.38;5051778;28;20049;-80
2022/08/23 09:52:59;;;;;;;4.30;1.30;;;;;;;25.83;36.47;99017.09;5052610;28;20464;-80
2022/08/23 09:55:31;;;;;;;3.22;1.13;;;;;;;25.99;34.67;99025.41;5070811;28;20117;-80
2022/08/23 09:58:01;;;;;;;5.43;1.15;;;;;;;26.14;35.06;99039.19;5071541;28;20052;-80
2022/08/23 10:00:29;;;;;;;;;;;;;;;26.22;34.69;99037.72;5072206;28;20044;-80
2022/08/23 10:03:21;;;;;;;3.22;0.95;;;;;;;26.23;34.06;99025.47;5070673;28;19924;-80
2022/08/23 10:05:50;;;;;;;2.60;1.20;;;;;;;26.17;34.34;99032.22;5051848;28;20060;-80
2022/08/23 10:08:23;;;;;;;4.90;1.88;;;;;;;26.31;33.44;99027.63;5051576;28;20041;-81
2022/08/23 10:10:53;;;;;;;5.10;1.33;;;;;;;26.42;33.58;99020.84;5051479;28;20107;-80
2022/08/23 10:13:21;;;;;;;2.58;1.33;;;;;;;26.34;33.90;99024.25;5070769;28;20049;-80
2022/08/23 10:15:58;;;;;;;4.07;1.35;;;;;;;26.63;34.41;99018.69;5071486;28;20077;-80
2022/08/23 10:18:39;;;;;;;7.30;1.40;;;;;;;26.85;34.20;99015.38;5070854;28;20444;-81
2022/08/23 10:21:10;;;;;;;3.10;1.50;;;;;;;27.06;33.03;99031.88;5071759;28;20052;-80
2022/08/23 10:23:47;;;;;;;2.92;1.13;;;;;;;26.94;33.18;99028.69;5069378;28;20044;-81
2022/08/23 10:26:21;;;;;;;1.65;1.17;;;;;;;26.94;33.21;99020.31;5071542;28;20053;-81
2022/08/23 10:31:50;;;;;;;2.83;1.50;;;;;;;26.83;33.22;99006.50;5070871;28;20059;-80
2022/08/23 10:34:27;;;;;;;6.28;1.33;;;;;;;26.83;33.37;98998.13;5070344;28;20115;-80
2022/08/23 10:37:06;;;;;;;4.97;1.33;;;;;;;26.94;32.81;98989.66;5070569;28;20049;-80
2022/08/23 10:39:32;;;;;;;3.33;1.17;;;;;;;27.03;31.99;98997.03;5070926;28;20049;-80
2022/08/23 10:42:06;;;;;;;3.80;1.55;;;;;;;27.26;32.11;99002.06;5070901;28;20098;-80
2022/08/23 10:44:43;;;;;;;4.38;1.30;;;;;;;27.50;32.53;98988.09;5070979;28;20098;-80
2022/08/23 10:47:27;;;;;;;9.10;1.42;;;;;;;27.67;31.76;98993.97;5064855;28;20090;-80
2022/08/23 10:49:55;;;;;;;5.47;1.42;;;;;;;27.69;30.96;98979.72;5050702;28;20057;-80
2022/08/23 10:52:26;;;;;;;10.43;1.70;;;;;;;27.93;31.11;98999.16;5050316;28;20128;-80
2022/08/23 10:55:05;;;;;;;6.78;1.35;;;;;;;27.67;30.48;98995.91;5050411;28;20496;-80
2022/08/23 10:57:35;;;;;;;1.88;1.27;;;;;;;27.80;30.49;98977.59;5051158;28;20099;-81
2022/08/23 11:00:06;;;;;;;3.58;1.40;;;;;;;28.00;31.16;98980.09;5050974;28;20377;-81
2022/08/23 11:02:41;;;;;;;1.98;1.13;;;;;;;28.22;30.75;98978.59;5067070;28;20040;-81
2022/08/23 11:05:20;;;;;;;3.80;1.42;;;;;;;28.32;30.61;98978.41;5070364;28;20075;-81
2022/08/23 11:07:59;;;;;;;5.03;1.35;;;;;;;28.34;30.37;98964.94;5070856;28;20051;-81
2022/08/23 11:10:31;;;;;;;4.43;1.40;;;;;;;28.49;29.51;98968.59;5070859;28;20058;-81
2022/08/23 11:13:01;;;;;;;7.80;1.30;;;;;;;28.54;29.69;98974.09;5070034;28;20041;-81
2022/08/23 11:15:37;;;;;;;3.92;1.30;;;;;;;28.55;30.37;98975.75;5070603;28;20052;-81
2022/08/23 11:18:07;;;;;;;4.90;1.20;;;;;;;28.51;29.73;98955.94;5070354;28;20419;-81
2022/08/23 11:20:52;;;;;;;;;;;;;;;28.28;29.83;98970.94;5069299;28;20071;-81
2022/08/23 11:23:39;;;;;;;6.65;1.48;;;;;;;28.48;30.03;98964.97;5068861;28;19927;-81
2022/08/23 11:26:08;;;;;;;5.70;1.70;;;;;;;28.49;29.84;98963.81;5070477;28;20053;-81
2022/08/23 11:28:46;;;;;;;4.90;1.50;;;;;;;28.27;29.50;98967.31;5070319;28;20052;-81
2022/08/23 11:31:28;;;;;;;3.03;1.33;;;;;;;28.48;29.25;98959.38;5069624;28;20056;-81
2022/08/23 11:34:03;;;;;;;2.83;1.50;;;;;;;28.56;28.81;98964.25;5070672;28;20515;-81
2022/08/23 11:36:31;;;;;;;5.47;1.55;;;;;;;28.61;29.22;98952.19;5068905;28;20451;-82
2022/08/23 11:39:18;;;;;;;5.97;1.30;;;;;;;28.67;29.22;98955.72;5070931;28;20053;-82
2022/08/23 11:42:09;;;;;;;2.47;1.20;;;;;;;28.86;29.33;98948.03;5067496;28;20108;-82
2022/08/23 11:44:40;;;;;;;4.05;1.35;;;;;;;28.99;28.76;98943.56;5070844;28;20052;-81
2022/08/23 11:47:10;;;;;;;1.75;1.27;;;;;;;29.44;29.26;98951.28;5069963;28;20052;-82
2022/08/23 11:50:18;;;;;;;5.05;1.40;;;;;;;29.35;28.44;98947.56;5069660;28;20052;-82
2022/08/23 11:53:09;;;;;;;4.43;1.67;;;;;;;29.61;28.33;98945.00;5068172;28;20132;-82
2022/08/23 11:55:59;;;;;;;2.47;1.20;;;;;;;29.40;28.31;98953.03;5070431;28;20053;-81
2022/08/23 11:58:42;;;;;;;6.70;1.33;;;;;;;29.49;27.71;98951.16;5071318;28;20053;-82
2022/08/23 12:01:12;;;;;;;4.40;1.33;;;;;;;29.37;28.18;98937.69;5073112;28;20622;-81
2022/08/23 12:03:54;;;;;;;;;;;;;;;29.61;28.80;98943.03;5073642;28;20070;-81
2022/08/23 12:06:41;;;;;;;3.25;1.42;;;;;;;29.90;28.35;98947.41;5073680;28;20291;-80
2022/08/23 12:09:22;;;;;;;2.95;1.35;;;;;;;30.18;27.20;98939.66;5067811;28;20049;-79
2022/08/23 12:12:23;;;;;;;6.88;1.35;;;;;;;30.30;27.21;98941.84;5058741;28;20076;-79
2022/08/23 12:14:54;;;;;;;4.78;1.30;;;;;;;29.88;27.20;98935.66;5072570;28;20079;-80
2022/08/23 12:18:06;;;;;;;3.05;1.38;;;;;;;30.34;27.06;98934.47;5072900;28;20555;-79
2022/08/23 12:20:35;;;;;;;4.07;1.33;;;;;;;30.39;26.95;98932.69;5072903;28;20056;-80
2022/08/23 12:23:12;;;;;;;6.17;1.23;;;;;;;30.77;26.88;98935.81;5071545;28;20049;-79
2022/08/23 12:25:39;;;;;;;3.28;1.25;;;;;;;30.94;26.08;98942.63;5071603;28;20094;-80
2022/08/23 12:28:30;;;;;;;4.50;1.67;;;;;;;30.73;26.26;98936.78;5072577;28;20055;-80
2022/08/23 12:31:03;;;;;;;5.88;1.35;;;;;;;30.71;26.64;98935.16;5073324;28;20048;-80
2022/08/23 12:33:41;;;;;;;4.05;1.85;;;;;;;30.83;26.66;98940.16;5072463;28;20071;-80
2022/08/23 12:36:17;;;;;;;4.82;1.30;;;;;;;31.02;26.26;98931.47;5073257;28;20107;-80
2022/08/23 12:38:59;;;;;;;5.00;1.83;;;;;;;31.17;26.62;98927.38;5072863;28;20045;-81
2022/08/23 12:41:28;;;;;;;2.15;1.38;;;;;;;30.87;25.89;98931.91;5071576;28;20471;-81
2022/08/23 12:43:58;;;;;;;3.83;1.63;;;;;;;31.14;25.85;98924.41;5071963;28;20060;-80
2022/08/23 12:46:31;;;;;;;4.85;1.20;;;;;;;31.22;25.64;98929.19;5072813;28;20044;-81
2022/08/23 12:48:58;;;;;;;4.75;1.70;;;;;;;31.05;25.79;98915.97;5072726;28;20396;-81
2022/08/23 12:51:26;;;;;;;2.35;1.30;;;;;;;31.11;25.96;98917.44;5072154;28;20526;-80
2022/08/23 12:53:52;;;;;;;3.53;1.30;;;;;;;31.41;26.38;98914.84;5071833;28;20793;-81
2022/08/23 12:56:23;;;;;;;2.33;1.10;;;;;;;31.58;25.42;98914.03;5071774;28;20391;-81
2022/08/23 12:58:53;;;;;;;1.45;1.20;;;;;;;31.52;25.43;98902.09;5063920;28;20498;-81
2022/08/23 13:01:22;;;;;;;4.20;1.38;;;;;;;31.71;26.10;98893.38;5071323;28;20053;-81
2022/08/23 13:03:54;;;;;;;7.53;1.50;;;;;;;31.57;25.26;98899.19;5071470;28;20052;-82
2022/08/23 13:06:26;;;;;;;4.55;1.60;;;;;;;30.95;25.56;98908.63;5072220;28;20345;-81
2022/08/23 13:09:00;;;;;;;3.22;1.33;;;;;;;31.11;25.83;98902.59;5072230;28;20049;-81
2022/08/23 13:11:31;;;;;;;4.20;1.70;;;;;;;31.47;25.58;98898.66;5072144;28;20053;-80
2022/08/23 13:13:58;;;;;;;5.28;1.40;;;;;;;31.76;25.33;98900.81;5070514;28;20213;-81
2022/08/23 13:16:29;;;;;;;3.40;0.98;;;;;;;32.02;24.38;98894.31;5072268;28;20070;-81
2022/08/23 13:19:09;;;;;;;5.45;1.50;;;;;;;31.74;24.76;98884.28;5072175;28;20052;-81
2022/08/23 13:21:36;;;;;;;3.00;1.35;;;;;;;31.90;24.75;98893.03;5072376;28;20052;-81
2022/08/23 13:24:30;;;;;;;5.03;1.63;;;;;;;32.37;24.74;98882.97;5070574;28;20056;-81
2022/08/23 13:27:16;;;;;;;3.85;1.27;;;;;;;32.48;24.18;98898.31;5071879;28;20052;-81
2022/08/23 13:29:50;;;;;;;1.60;1.23;;;;;;;32.47;24.16;98897.50;5070704;28;20476;-81
2022/08/23 13:32:36;;;;;;;6.28;1.52;;;;;;;32.74;24.72;98878.50;5071252;28;21063;-81
2022/08/23 13:35:32;;;;;;;3.40;1.38;;;;;;;32.46;24.34;98892.22;5072251;28;20045;-82
2022/08/23 13:38:01;;;;;;;10.77;1.50;;;;;;;31.80;25.41;98890.56;5071756;28;20044;-81
2022/08/23 13:40:32;;;;;;;2.92;1.27;;;;;;;31.42;25.89;98894.84;5072153;28;20049;-81
2022/08/23 13:43:01;;;;;;;5.22;1.58;;;;;;;30.76;26.50;98882.84;5071213;28;20596;-81
2022/08/23 13:45:30;;;;;;;2.53;1.15;;;;;;;30.78;27.02;98889.78;5071740;28;20051;-82
2022/08/23 13:48:01;;;;;;;3.53;1.58;;;;;;;30.50;26.65;98890.03;5071609;28;20075;-82
2022/08/23 13:50:29;;;;;;;2.63;1.30;;;;;;;30.29;27.24;98886.09;5071819;28;20049;-82
2022/08/23 13:52:56;;;;;;;3.73;1.30;;;;;;;30.32;28.00;98888.25;5070612;28;20056;-82
2022/08/23 13:55:24;;;;;;;4.90;1.50;;;;;;;30.24;27.09;98883.47;5071818;28;20058;-81
2022/08/23 13:57:52;;;;;;;5.03;1.60;;;;;;;30.40;27.14;98887.53;5071726;28;20174;-81
2022/08/23 14:00:19;;;;;;;2.92;1.23;;;;;;;30.48;27.05;98891.50;5071763;28;20574;-81
2022/08/23 14:02:47;;;;;;;3.25;1.27;;;;;;;30.06;26.85;98896.56;5069882;28;20052;-81
2022/08/23 14:05:20;;;;;;;3.40;1.63;;;;;;;29.74;28.16;98885.28;5066775;28;20049;-81
2022/08/23 14:07:51;;;;;;;2.50;1.20;;;;;;;29.76;28.21;98891.38;5071439;28;20462;-81
2022/08/23 14:10:20;;;;;;;5.88;1.70;;;;;;;29.32;28.08;98889.41;5071400;28;20144;-80
2022/08/23 14:12:48;;;;;;;4.03;1.52;;;;;;;29.02;28.51;98889.75;5070780;28;20060;-81
2022/08/23 14:15:18;;;;;;;5.30;1.40;;;;;;;28.92;28.96;98890.84;5071394;28;20385;-81
2022/08/23 14:17:53;;;;;;;4.90;1.52;;;;;;;28.84;30.03;98897.16;5071306;28;20059;-81
2022/08/23 14:20:21;;;;;;;3.72;1.13;;;;;;;28.89;30.07;98885.03;5066845;28;20053;-80
2022/08/23 14:22:47;;;;;;;3.30;1.60;;;;;;;28.83;28.79;98889.06;5067657;28;20063;-81
2022/08/23 14:25:14;;;;;;;3.20;1.80;;;;;;;28.76;29.49;98884.72;5071127;28;20441;-81
2022/08/23 14:27:44;;;;;;;3.67;1.45;;;;;;;28.89;29.24;98868.22;5070551;28;20048;-81
2022/08/23 14:30:23;;;;;;;3.83;1.52;;;;;;;29.50;28.31;98870.78;5071121;28;20062;-81
2022/08/23 14:32:51;;;;;;;3.58;1.38;;;;;;;30.21;26.93;98884.09;5070279;28;20056;-82
2022/08/23 14:35:18;;;;;;;4.10;1.42;;;;;;;30.65;26.63;98883.16;5070784;28;20044;-82
2022/08/23 14:37:44;;;;;;;10.23;2.15;;;;;;;31.03;25.41;98870.56;5069510;28;20044;-81
2022/08/23 14:40:12;;;;;;;2.38;1.30;;;;;;;30.92;26.23;98869.19;5070441;28;20522;-81
2022/08/23 14:42:39;;;;;;;2.75;1.40;;;;;;;31.03;25.22;98862.97;5069522;28;20040;-82
2022/08/23 14:45:07;;;;;;;9.68;1.48;;;;;;;31.26;25.34;98860.00;5070712;28;20480;-83
2022/08/23 14:47:34;;;;;;;4.10;1.40;;;;;;;31.19;25.84;98860.47;5070633;28;20486;-83
2022/08/23 14:50:04;;;;;;;5.50;1.40;;;;;;;31.32;25.16;98861.47;5071096;28;20052;-82
2022/08/23 14:52:31;;;;;;;4.65;1.85;;;;;;;31.59;25.01;98867.94;5069691;28;20234;-82
2022/08/23 14:54:57;;;;;;;5.85;1.45;;;;;;;31.64;24.88;98862.13;5069189;28;20071;-82
2022/08/23 14:57:24;;;;;;;6.90;1.60;;;;;;;31.87;24.83;98851.53;5070438;28;20049;-82
2022/08/23 14:59:51;;;;;;;10.43;1.73;;;;;;;31.98;24.29;98866.03;5070492;28;20052;-82
2022/08/23 15:02:22;;;;;;;3.50;1.50;;;;;;;32.19;23.96;98863.38;5069924;28;20143;-82
2022/08/23 15:04:49;;;;;;;2.78;1.35;;;;;;;32.21;23.77;98863.84;5070224;28;20052;-82
2022/08/23 15:07:17;;;;;;;2.50;1.27;;;;;;;32.00;23.62;98866.53;5070263;28;20517;-83
2022/08/23 15:09:44;;;;;;;2.88;1.30;;;;;;;31.92;24.17;98856.97;5069293;28;20060;-82
2022/08/23 15:12:11;;;;;;;4.22;1.50;;;;;;;32.08;23.70;98874.13;5069315;28;20057;-82
2022/08/23 15:14:38;;;;;;;5.38;1.35;;;;;;;32.20;23.16;98861.38;5070462;28;20123;-82
2022/08/23 15:17:05;;;;;;;3.17;1.40;;;;;;;31.87;23.82;98868.41;5070503;28;20052;-83
2022/08/23 15:19:32;;;;;;;3.60;1.35;;;;;;;31.88;23.92;98866.41;5070338;28;20290;-82
2022/08/23 15:22:01;;;;;;;2.60;1.20;;;;;;;31.99;24.31;98864.06;5070070;28;20486;-82
2022/08/23 15:24:32;;;;;;;5.15;1.27;;;;;;;32.21;23.89;98857.41;5070274;28;20048;-80
2022/08/23 15:27:02;;;;;;;2.50;1.23;;;;;;;32.29;23.55;98859.34;5068563;28;20075;-80
2022/08/23 15:29:32;;;;;;;2.88;1.30;;;;;;;32.51;23.58;98841.38;5070055;28;20051;-81
2022/08/23 15:31:59;;;;;;;2.85;1.60;;;;;;;32.83;23.14;98846.69;5070159;28;20110;-81
2022/08/23 15:34:27;;;;;;;4.13;1.38;;;;;;;32.56;22.63;98852.41;5070145;28;20128;-80
2022/08/23 15:36:54;;;;;;;3.95;1.30;;;;;;;32.42;22.71;98847.03;5074224;28;20048;-80
2022/08/23 15:39:20;;;;;;;4.53;1.40;;;;;;;32.39;23.34;98861.78;5074208;28;20384;-80
2022/08/23 15:41:49;;;;;;;2.25;1.25;;;;;;;32.02;23.65;98861.41;5058290;28;20052;-80
2022/08/23 15:44:15;;;;;;;2.80;1.40;;;;;;;31.90;24.07;98864.91;5070437;28;20286;-80
2022/08/23 15:46:46;;;;;;;4.90;1.30;;;;;;;32.23;23.87;98857.88;5071636;28;20058;-80
2022/08/23 15:49:15;;;;;;;2.80;1.45;;;;;;;32.05;23.48;98855.13;5070481;28;20399;-80
2022/08/23 15:51:42;;;;;;;2.72;1.30;;;;;;;32.10;23.92;98863.38;5071680;28;20048;-80
2022/08/23 15:54:12;;;;;;;7.43;1.52;;;;;;;32.04;23.88;98853.47;5070696;28;20133;-80
2022/08/23 15:56:48;;;;;;;3.08;1.23;;;;;;;32.10;23.60;98840.06;5071248;28;20045;-81
2022/08/23 15:59:19;;;;;;;3.13;1.10;;;;;;;32.28;23.78;98860.53;5071923;28;20052;-80
2022/08/23 16:01:46;;;;;;;3.45;1.33;;;;;;;31.71;23.91;98850.41;5070505;28;20052;-80
2022/08/23 16:04:13;;;;;;;2.58;1.45;;;;;;;31.53;24.19;98850.41;5070445;28;20052;-80
2022/08/23 16:06:40;;;;;;;4.68;1.25;;;;;;;31.51;24.68;98855.53;5071446;28;20071;-80
2022/08/23 16:09:12;;;;;;;3.13;1.02;;;;;;;31.35;24.63;98845.97;5071740;28;20078;-80
2022/08/23 16:11:39;;;;;;;6.32;1.45;;;;;;;31.35;24.99;98843.16;5067255;28;20052;-79
